Time;durP1;ratioP1;P1;durP2;ratioP2;P2;SDS_P1;SDS_P2;PMS_P1;PMS_P2;Temp;Humidity;BMP_temperature;BMP_pressure;BME280_temperature;BME280_humidity;BME280_pressure;Samples;Min_cycle;Max_cycle;Signal;HPM_P1;HPM_P2
2022/02/13 00:01:21;;;;;;;21.08;10.02;;;;;;;4.90;59.96;101887.91;4963464;28;20050;-57
2022/02/13 00:03:47;;;;;;;23.73;10.35;;;;;;;4.76;60.63;101881.13;4953486;28;20132;-56
2022/02/13 00:06:12;;;;;;;23.73;10.50;;;;;;;4.72;60.63;101879.19;4952049;28;20459;-57
2022/02/13 00:08:37;;;;;;;21.73;10.05;;;;;;;4.64;60.64;101867.56;4958701;28;20069;-58
2022/02/13 00:11:03;;;;;;;19.80;10.45;;;;;;;4.69;61.35;101867.84;4947235;28;20391;-57
2022/02/13 00:13:28;;;;;;;20.55;10.48;;;;;;;4.75;60.97;101850.06;4958274;28;20070;-58
2022/02/13 00:15:53;;;;;;;24.33;10.32;;;;;;;4.68;61.12;101838.53;4954669;28;20043;-58
2022/02/13 00:18:19;;;;;;;25.58;10.27;;;;;;;4.67;61.27;101823.84;4955299;28;20469;-56
2022/02/13 00:20:44;;;;;;;21.92;10.13;;;;;;;4.67;61.74;101826.41;4951189;28;20050;-53
2022/02/13 00:23:10;;;;;;;23.67;10.38;;;;;;;4.69;61.80;101819.66;4936864;28;20193;-57
2022/02/13 00:25:35;;;;;;;26.85;11.13;;;;;;;4.64;62.03;101815.91;4956754;28;20329;-57
2022/02/13 00:28:01;;;;;;;26.05;10.57;;;;;;;4.68;61.90;101809.22;4951369;28;20500;-57
2022/02/13 00:30:26;;;;;;;24.30;10.48;;;;;;;4.67;61.70;101802.28;4956406;28;20133;-57
2022/02/13 00:32:52;;;;;;;23.70;10.93;;;;;;;4.68;61.49;101799.78;4904916;28;20049;-56
2022/02/13 00:35:17;;;;;;;21.13;10.00;;;;;;;4.72;61.94;101787.91;4952899;28;20042;-56
2022/02/13 00:37:43;;;;;;;20.83;10.48;;;;;;;4.74;62.13;101787.19;4951282;28;20229;-55
2022/02/13 00:40:09;;;;;;;22.80;10.30;;;;;;;4.78;61.60;101791.69;4932762;28;20414;-54
2022/02/13 00:42:35;;;;;;;20.48;10.38;;;;;;;4.81;61.28;101784.13;4959108;28;20216;-58
2022/02/13 00:45:01;;;;;;;22.38;10.07;;;;;;;4.87;61.32;101768.03;4939894;28;20415;-58
2022/02/13 00:47:26;;;;;;;24.95;11.07;;;;;;;5.00;60.94;101775.56;4952490;28;20066;-57
2022/02/13 00:49:52;;;;;;;22.55;11.05;;;;;;;5.07;60.70;101776.75;4952822;28;20051;-58
2022/02/13 00:52:18;;;;;;;21.38;10.98;;;;;;;5.15;61.12;101771.16;4954684;28;20053;-58
2022/02/13 00:54:44;;;;;;;24.80;10.60;;;;;;;5.06;60.83;101775.00;4955581;28;20042;-55
2022/02/13 00:57:12;;;;;;;23.60;10.68;;;;;;;5.17;60.62;101766.97;4953089;28;20466;-54
2022/02/13 00:59:37;;;;;;;18.42;9.95;;;;;;;5.26;60.60;101761.34;4954997;28;20480;-53
2022/02/13 01:02:03;;;;;;;21.60;10.43;;;;;;;5.32;60.29;101751.31;4957612;28;20490;-54
2022/02/13 01:04:28;;;;;;;23.58;10.75;;;;;;;5.30;60.43;101740.91;4954563;28;20053;-56
2022/02/13 01:06:54;;;;;;;20.58;10.23;;;;;;;5.45;59.72;101743.31;4944469;28;20167;-59
2022/02/13 01:09:20;;;;;;;19.92;10.20;;;;;;;5.51;59.76;101743.63;4962898;28;20117;-56
2022/02/13 01:11:45;;;;;;;22.83;10.45;;;;;;;5.47;59.30;101723.59;4955592;28;20038;-57
2022/02/13 01:14:10;;;;;;;19.55;9.63;;;;;;;5.45;59.81;101719.16;4957966;28;20034;-56
2022/02/13 01:16:36;;;;;;;20.95;10.20;;;;;;;5.53;59.43;101708.38;4948285;28;20681;-56
2022/02/13 01:19:02;;;;;;;20.42;10.68;;;;;;;5.48;59.73;101717.63;4951729;28;20510;-55
2022/02/13 01:21:29;;;;;;;21.67;10.25;;;;;;;5.53;59.51;101710.97;4953597;28;20069;-58
2022/02/13 01:23:55;;;;;;;21.65;10.18;;;;;;;5.63;59.08;101717.44;4954825;28;20042;-55
2022/02/13 01:26:20;;;;;;;20.48;10.02;;;;;;;5.64;59.38;101720.09;4959650;28;20065;-56
2022/02/13 01:28:47;;;;;;;21.38;10.52;;;;;;;5.62;59.17;101724.31;4954658;28;20486;-56
2022/02/13 01:31:14;;;;;;;18.45;10.07;;;;;;;5.59;59.34;101731.94;4946514;28;20484;-56
2022/02/13 01:33:40;;;;;;;19.60;9.80;;;;;;;5.48;59.58;101730.56;4956861;28;20046;-58
2022/02/13 01:36:05;;;;;;;26.02;10.63;;;;;;;5.55;59.23;101729.16;4952191;28;20047;-57
2022/02/13 01:38:31;;;;;;;19.52;9.57;;;;;;;5.50;59.04;101722.84;4960316;28;20046;-58
2022/02/13 01:40:57;;;;;;;19.73;9.57;;;;;;;5.49;59.33;101724.53;4943723;28;20061;-56
2022/02/13 01:43:23;;;;;;;19.95;10.07;;;;;;;5.40;59.44;101718.06;4955558;28;20050;-55
2022/02/13 01:45:49;;;;;;;20.95;10.65;;;;;;;5.34;59.33;101712.59;4946885;28;20050;-56
2022/02/13 01:48:14;;;;;;;20.38;10.23;;;;;;;5.31;59.58;101696.13;4956982;28;20493;-56
2022/02/13 01:50:41;;;;;;;19.08;9.85;;;;;;;5.15;59.80;101691.03;4943068;28;20314;-56
2022/02/13 01:53:08;;;;;;;21.13;10.27;;;;;;;5.17;59.61;101694.59;4948629;28;20517;-55
2022/02/13 01:55:34;;;;;;;20.38;9.73;;;;;;;5.11;60.47;101693.41;4954167;28;20050;-57
2022/02/13 01:57:59;;;;;;;18.85;10.18;;;;;;;5.02;60.52;101696.44;4953929;28;20097;-55
2022/02/13 02:00:25;;;;;;;21.30;10.25;;;;;;;5.01;60.49;101694.66;4956982;28;20473;-57
2022/02/13 02:02:51;;;;;;;21.38;9.88;;;;;;;4.95;60.43;101694.34;4926375;28;20445;-56
2022/02/13 02:05:16;;;;;;;21.08;10.68;;;;;;;4.87;60.78;101694.00;4950781;28;20096;-56
2022/02/13 02:07:41;;;;;;;18.30;10.05;;;;;;;4.83;60.85;101683.41;4953363;28;20054;-57
2022/02/13 02:10:07;;;;;;;21.52;10.25;;;;;;;4.81;60.84;101690.22;4956515;28;20065;-57
2022/02/13 02:12:35;;;;;;;21.42;9.55;;;;;;;4.77;61.10;101681.41;4964279;28;20033;-57
2022/02/13 02:15:00;;;;;;;20.90;10.00;;;;;;;4.68;60.82;101665.47;4952777;28;20066;-56
2022/02/13 02:17:26;;;;;;;22.73;10.10;;;;;;;4.65;61.22;101669.59;4951799;28;20557;-59
2022/02/13 02:19:51;;;;;;;20.45;9.88;;;;;;;4.68;61.74;101664.59;4963396;28;20029;-59
2022/02/13 02:22:16;;;;;;;21.48;10.10;;;;;;;4.62;61.25;101657.44;4952141;28;20707;-56
2022/02/13 02:24:45;;;;;;;21.48;10.07;;;;;;;4.62;61.14;101648.78;4944228;28;20042;-55
2022/02/13 02:27:11;;;;;;;19.58;10.00;;;;;;;4.56;62.23;101641.63;4954678;28;20042;-55
2022/02/13 02:29:36;;;;;;;20.17;9.27;;;;;;;4.57;61.89;101638.25;4958273;28;20495;-53
2022/02/13 02:32:02;;;;;;;21.70;10.57;;;;;;;4.61;61.84;101627.25;4962068;28;20053;-55
2022/02/13 02:34:27;;;;;;;23.50;9.95;;;;;;;4.64;61.59;101629.06;4959610;28;20389;-55
2022/02/13 02:36:52;;;;;;;21.88;9.90;;;;;;;4.59;61.41;101628.84;4948767;28;20042;-56
2022/02/13 02:39:18;;;;;;;24.20;10.10;;;;;;;4.50;61.63;101612.94;4961932;28;20159;-54
2022/02/13 02:41:43;;;;;;;21.35;10.07;;;;;;;4.56;61.30;101617.50;4941166;28;20193;-56
2022/02/13 02:44:09;;;;;;;21.27;9.60;;;;;;;4.53;61.95;101612.16;4957164;28;20220;-56
2022/02/13 02:46:38;;;;;;;19.58;10.07;;;;;;;4.57;61.35;101608.94;4960368;28;20058;-55
2022/02/13 02:49:03;;;;;;;19.95;9.45;;;;;;;4.54;61.40;101603.63;4951586;28;20594;-56
2022/02/13 02:51:29;;;;;;;19.13;10.45;;;;;;;4.47;61.56;101597.25;4950649;28;20088;-55
2022/02/13 02:53:54;;;;;;;21.40;10.90;;;;;;;4.49;61.99;101591.38;4961702;28;20549;-53
2022/02/13 02:56:20;;;;;;;22.00;10.30;;;;;;;4.47;61.56;101579.19;4956162;28;20034;-56
2022/02/13 02:58:45;;;;;;;18.58;10.30;;;;;;;4.51;61.62;101582.81;4952597;28;20744;-56
2022/02/13 03:01:10;;;;;;;22.42;10.02;;;;;;;4.48;61.49;101571.53;4957966;28;20124;-54
2022/02/13 03:03:36;;;;;;;21.95;9.93;;;;;;;4.53;61.71;101573.44;4961156;28;20069;-55
2022/02/13 03:06:01;;;;;;;19.95;10.15;;;;;;;4.40;61.67;101567.69;4949864;28;20482;-55
2022/02/13 03:08:27;;;;;;;20.88;10.20;;;;;;;4.54;61.52;101555.44;4959342;28;20047;-55
2022/02/13 03:10:53;;;;;;;22.88;10.85;;;;;;;4.58;61.70;101562.53;4951772;28;21368;-52
2022/02/13 03:13:20;;;;;;;20.23;10.02;;;;;;;4.60;61.31;101549.69;4962383;28;20478;-56
2022/02/13 03:15:46;;;;;;;19.30;10.07;;;;;;;4.62;61.41;101555.81;4950189;28;20122;-52
2022/02/13 03:18:12;;;;;;;21.52;10.50;;;;;;;4.60;60.90;101554.84;4955687;28;20045;-53
2022/02/13 03:20:38;;;;;;;21.58;10.27;;;;;;;4.22;62.02;101543.53;4955179;28;20125;-55
2022/02/13 03:23:04;;;;;;;20.77;9.75;;;;;;;4.24;62.21;101538.47;4952606;28;20628;-56
2022/02/13 03:25:30;;;;;;;21.60;10.20;;;;;;;4.42;61.28;101553.16;4959953;28;20050;-55
2022/02/13 03:27:55;;;;;;;20.25;9.73;;;;;;;4.47;61.85;101541.34;4956580;28;20597;-57
2022/02/13 03:30:21;;;;;;;17.75;9.90;;;;;;;4.52;61.62;101535.50;4955929;28;20340;-57
2022/02/13 03:32:46;;;;;;;17.35;9.25;;;;;;;4.53;61.33;101530.44;4953099;28;20084;-55
2022/02/13 03:35:12;;;;;;;21.27;10.00;;;;;;;4.52;61.26;101528.66;4957150;28;20069;-57
2022/02/13 03:37:40;;;;;;;20.50;10.13;;;;;;;4.47;61.18;101522.41;4953304;28;20042;-57
2022/02/13 03:40:06;;;;;;;19.48;9.50;;;;;;;4.43;61.05;101511.03;4953399;28;20510;-57
2022/02/13 03:42:31;;;;;;;22.45;9.88;;;;;;;4.49;61.46;101520.78;4956486;28;20185;-56
2022/02/13 03:44:57;;;;;;;19.67;9.82;;;;;;;4.49;61.58;101528.53;4948591;28;20038;-56
2022/02/13 03:47:23;;;;;;;21.10;10.27;;;;;;;4.41;61.44;101522.97;4957766;28;20093;-56
2022/02/13 03:49:48;;;;;;;20.45;10.50;;;;;;;4.41;61.94;101522.09;4956897;28;20046;-57
2022/02/13 03:52:14;;;;;;;19.55;10.15;;;;;;;4.36;61.58;101515.84;4958979;28;20532;-56
2022/02/13 03:54:39;;;;;;;21.27;10.30;;;;;;;4.34;62.16;101532.94;4960545;28;20121;-53
2022/02/13 03:57:04;;;;;;;22.90;10.25;;;;;;;4.41;61.84;101528.16;4950948;28;20430;-54
2022/02/13 03:59:30;;;;;;;19.00;9.95;;;;;;;4.41;61.44;101524.69;4956804;28;20038;-57
2022/02/13 04:01:55;;;;;;;19.65;10.02;;;;;;;4.38;61.85;101527.13;4957978;28;20076;-57
2022/02/13 04:04:20;;;;;;;18.13;9.85;;;;;;;4.32;62.18;101524.25;4952098;28;20512;-59
2022/02/13 04:06:46;;;;;;;20.60;9.93;;;;;;;4.36;61.66;101521.88;4954484;28;20463;-52
2022/02/13 04:09:11;;;;;;;20.73;10.25;;;;;;;4.36;62.05;101513.25;4937082;28;20116;-56
2022/02/13 04:11:36;;;;;;;19.85;10.48;;;;;;;4.32;62.32;101517.41;4962314;28;20810;-55
2022/02/13 04:14:02;;;;;;;17.77;9.43;;;;;;;4.43;61.95;101517.91;4952925;28;20042;-55
2022/02/13 04:16:27;;;;;;;20.77;10.02;;;;;;;4.33;62.38;101516.56;4953670;28;20104;-56
2022/02/13 04:18:52;;;;;;;20.20;9.98;;;;;;;4.32;62.28;101512.22;4947915;28;20043;-57
2022/02/13 04:21:18;;;;;;;21.77;10.38;;;;;;;4.31;62.15;101517.31;4951246;28;20863;-58
2022/02/13 04:23:43;;;;;;;21.55;10.13;;;;;;;4.32;62.44;101519.97;4958939;28;20571;-56
2022/02/13 04:26:09;;;;;;;19.20;9.70;;;;;;;4.32;61.84;101509.66;4957933;28;20329;-56
2022/02/13 04:28:34;;;;;;;19.17;10.00;;;;;;;4.31;62.74;101501.81;4956901;28;20148;-55
2022/02/13 04:30:59;;;;;;;18.55;10.00;;;;;;;4.33;62.76;101505.38;4945611;28;20038;-57
2022/02/13 04:33:25;;;;;;;20.55;9.68;;;;;;;4.31;62.06;101505.28;4957475;28;20050;-56
2022/02/13 04:35:50;;;;;;;23.60;9.88;;;;;;;4.32;62.45;101508.75;4957176;28;20066;-56
2022/02/13 04:38:16;;;;;;;21.13;10.05;;;;;;;4.30;62.57;101508.69;4958673;28;20047;-55
2022/02/13 04:40:41;;;;;;;19.95;9.98;;;;;;;4.34;62.07;101508.00;4954948;28;20838;-55
2022/02/13 04:43:07;;;;;;;22.98;10.40;;;;;;;4.33;62.79;101510.53;4953059;28;20529;-54
2022/02/13 04:45:33;;;;;;;20.67;10.00;;;;;;;4.34;62.03;101507.13;4957224;28;20045;-56
2022/02/13 04:47:58;;;;;;;20.95;10.10;;;;;;;4.35;62.65;101494.28;4958501;28;20042;-56
2022/02/13 04:50:24;;;;;;;18.88;9.85;;;;;;;4.34;62.56;101495.09;4959480;28;20051;-55
2022/02/13 04:52:51;;;;;;;19.10;10.27;;;;;;;4.30;62.09;101493.19;4949407;28;20038;-57
2022/02/13 04:55:18;;;;;;;20.15;10.57;;;;;;;4.37;62.87;101491.78;4954283;28;20494;-55
2022/02/13 04:57:45;;;;;;;22.85;10.18;;;;;;;4.36;62.37;101490.03;4953776;28;20137;-53
2022/02/13 05:00:12;;;;;;;22.98;10.50;;;;;;;4.38;61.90;101486.72;4958696;28;20047;-56
2022/02/13 05:02:38;;;;;;;21.90;10.30;;;;;;;4.42;62.27;101474.81;4954185;28;20038;-55
2022/02/13 05:05:04;;;;;;;17.50;9.98;;;;;;;4.35;62.70;101467.59;4945744;28;20351;-57
2022/02/13 05:07:29;;;;;;;20.05;10.60;;;;;;;4.51;62.16;101464.94;4939336;28;20065;-56
2022/02/13 05:09:55;;;;;;;20.95;10.27;;;;;;;4.52;62.11;101455.47;4957229;28;20053;-57
2022/02/13 05:12:20;;;;;;;22.15;10.85;;;;;;;4.62;61.83;101450.84;4954096;28;20383;-56
2022/02/13 05:14:46;;;;;;;21.92;10.27;;;;;;;4.19;63.01;101450.50;4955342;28;20050;-54
2022/02/13 05:17:12;;;;;;;22.98;10.65;;;;;;;4.28;62.92;101444.88;4952305;28;20042;-55
2022/02/13 05:19:37;;;;;;;20.27;10.10;;;;;;;4.19;63.88;101439.28;4956613;28;21205;-58
2022/02/13 05:22:03;;;;;;;19.38;10.20;;;;;;;4.67;62.43;101441.59;4954380;28;20486;-53
2022/02/13 05:24:28;;;;;;;19.00;9.98;;;;;;;4.87;61.54;101430.47;4949716;28;20018;-56
2022/02/13 05:26:54;;;;;;;22.67;10.65;;;;;;;4.93;61.02;101439.31;4947258;28;20047;-56
2022/02/13 05:29:19;;;;;;;20.33;10.32;;;;;;;4.99;61.19;101429.25;4959170;28;20407;-57
2022/02/13 05:31:45;;;;;;;19.48;10.07;;;;;;;5.05;60.32;101438.16;4955841;28;20034;-56
2022/02/13 05:34:15;;;;;;;21.50;10.35;;;;;;;5.13;60.40;101438.47;4958474;28;20057;-53
2022/02/13 05:36:41;;;;;;;19.75;10.18;;;;;;;5.20;59.66;101425.00;4934657;28;20101;-55
2022/02/13 05:39:06;;;;;;;20.13;10.02;;;;;;;5.29;59.19;101422.84;4944402;28;20054;-55
2022/02/13 05:41:31;;;;;;;17.52;9.88;;;;;;;5.18;60.28;101414.63;4955896;28;20081;-60
2022/02/13 05:43:57;;;;;;;17.60;9.75;;;;;;;5.36;59.52;101411.94;4956290;28;20042;-56
2022/02/13 05:46:25;;;;;;;20.20;10.45;;;;;;;5.45;59.20;101414.03;4953121;28;20050;-55
2022/02/13 05:48:51;;;;;;;19.33;10.13;;;;;;;5.48;59.32;101417.66;4949075;28;20141;-55
2022/02/13 05:51:16;;;;;;;20.33;10.68;;;;;;;5.52;58.86;101416.94;4959215;28;20051;-57
2022/02/13 05:53:41;;;;;;;20.63;10.15;;;;;;;5.47;59.07;101413.28;4950637;28;20133;-56
2022/02/13 05:56:07;;;;;;;20.95;9.85;;;;;;;5.44;58.86;101402.78;4951559;28;20407;-58
2022/02/13 05:58:40;;;;;;;19.63;10.13;;;;;;;5.55;58.66;101403.28;4961191;28;20096;-56
2022/02/13 06:01:06;;;;;;;19.73;10.32;;;;;;;5.59;58.54;101392.22;4952683;28;20479;-56
2022/02/13 06:03:31;;;;;;;19.42;10.07;;;;;;;5.57;58.67;101388.69;4933881;28;20125;-54
2022/02/13 06:05:56;;;;;;;21.05;10.52;;;;;;;5.68;58.33;101390.00;4955928;28;20577;-52
2022/02/13 06:08:23;;;;;;;21.17;10.68;;;;;;;5.66;58.36;101394.25;4964979;28;20665;-56
2022/02/13 06:10:48;;;;;;;21.23;10.35;;;;;;;5.71;58.30;101390.13;4953047;28;20149;-55
2022/02/13 06:13:13;;;;;;;21.35;10.50;;;;;;;5.57;58.66;101389.56;4955116;28;20096;-52
2022/02/13 06:15:39;;;;;;;19.63;10.43;;;;;;;5.61;58.45;101388.84;4962707;28;20041;-56
2022/02/13 06:18:04;;;;;;;22.52;9.95;;;;;;;5.66;58.47;101382.19;4960249;28;20054;-54
2022/02/13 06:20:30;;;;;;;18.73;10.10;;;;;;;5.70;58.35;101381.50;4950273;28;20070;-56
2022/02/13 06:22:55;;;;;;;18.98;10.25;;;;;;;5.70;58.20;101381.50;4951967;28;20065;-56
2022/02/13 06:25:20;;;;;;;21.98;10.57;;;;;;;5.70;58.12;101376.31;4950857;28;20132;-56
2022/02/13 06:27:46;;;;;;;18.90;10.70;;;;;;;5.66;58.48;101371.84;4955009;28;20050;-56
2022/02/13 06:30:11;;;;;;;18.00;9.80;;;;;;;5.77;58.53;101376.56;4956211;28;20046;-57
2022/02/13 06:32:37;;;;;;;18.35;10.18;;;;;;;5.77;58.05;101371.41;4964001;28;20039;-55
2022/02/13 06:35:03;;;;;;;22.55;10.77;;;;;;;5.73;58.47;101363.50;4946665;28;20128;-54
2022/02/13 06:37:30;;;;;;;19.80;9.75;;;;;;;5.74;57.91;101354.03;4961577;28;20042;-56
2022/02/13 06:39:57;;;;;;;21.42;9.95;;;;;;;5.68;58.58;101356.38;4954200;28;20053;-55
2022/02/13 06:42:23;;;;;;;19.27;9.93;;;;;;;5.69;58.60;101363.31;4960625;28;20287;-56
2022/02/13 06:44:49;;;;;;;20.67;10.35;;;;;;;5.69;58.22;101355.56;4946414;28;20057;-60
2022/02/13 06:47:15;;;;;;;20.67;10.05;;;;;;;5.69;59.00;101350.38;4959583;28;20042;-56
2022/02/13 06:49:40;;;;;;;19.25;10.38;;;;;;;5.74;58.37;101354.03;4957338;28;20053;-57
2022/02/13 06:52:05;;;;;;;18.95;10.57;;;;;;;5.71;58.46;101349.63;4956483;28;20490;-56
2022/02/13 06:54:31;;;;;;;19.00;9.80;;;;;;;5.69;59.02;101347.78;4960848;28;20050;-56
2022/02/13 06:56:56;;;;;;;18.50;9.98;;;;;;;5.73;58.84;101354.88;4917396;28;20109;-55
2022/02/13 06:59:22;;;;;;;20.05;10.27;;;;;;;5.67;58.83;101352.03;4959147;28;20144;-58
2022/02/13 07:01:48;;;;;;;18.52;9.95;;;;;;;5.72;58.72;101353.09;4960438;28;20378;-56
2022/02/13 07:04:13;;;;;;;20.70;10.23;;;;;;;5.73;58.94;101355.72;4932587;28;20037;-55
2022/02/13 07:06:39;;;;;;;19.80;9.98;;;;;;;5.78;58.42;101361.13;4959619;28;20054;-55
2022/02/13 07:09:04;;;;;;;16.88;9.75;;;;;;;5.77;58.18;101350.69;4955330;28;20371;-54
2022/02/13 07:11:29;;;;;;;22.13;10.18;;;;;;;5.75;59.01;101354.91;4962914;28;20074;-55
2022/02/13 07:13:55;;;;;;;19.30;9.98;;;;;;;5.71;58.75;101352.22;4945575;28;20410;-53
2022/02/13 07:16:20;;;;;;;19.90;9.80;;;;;;;5.71;59.11;101354.81;4957038;28;20176;-56
2022/02/13 07:18:46;;;;;;;18.95;10.25;;;;;;;5.73;59.04;101347.97;4957474;28;20457;-56
2022/02/13 07:21:11;;;;;;;21.80;10.10;;;;;;;5.80;58.76;101356.88;4956797;28;20038;-53
2022/02/13 07:23:37;;;;;;;19.17;10.07;;;;;;;5.69;58.22;101352.97;4961081;28;20474;-53
2022/02/13 07:26:03;;;;;;;19.20;9.65;;;;;;;5.61;59.08;101363.00;4942782;28;20034;-57
2022/02/13 07:31:12;;;;;;;20.17;10.60;;;;;;;5.70;59.10;101353.03;4957309;28;20053;-56
2022/02/13 07:33:37;;;;;;;22.63;10.80;;;;;;;5.67;59.49;101345.13;4954330;28;20471;-55
2022/02/13 07:36:02;;;;;;;19.42;10.43;;;;;;;5.77;59.05;101337.75;4956093;28;20039;-52
2022/02/13 07:38:31;;;;;;;19.83;9.68;;;;;;;5.76;59.09;101341.16;4954269;28;20169;-55
2022/02/13 07:40:56;;;;;;;18.70;9.73;;;;;;;5.81;58.45;101339.63;4947562;28;21039;-55
2022/02/13 07:43:22;;;;;;;19.77;10.25;;;;;;;5.76;59.21;101336.00;4954741;28;20066;-56
2022/02/13 07:45:47;;;;;;;18.75;9.80;;;;;;;5.85;58.83;101339.84;4946069;28;20069;-57
2022/02/13 07:48:12;;;;;;;18.25;9.88;;;;;;;5.91;58.58;101324.59;4957750;28;20494;-57
2022/02/13 07:50:38;;;;;;;20.80;9.68;;;;;;;5.95;58.24;101318.72;4955486;28;20507;-54
2022/02/13 07:53:04;;;;;;;20.60;10.55;;;;;;;5.98;58.13;101312.75;4950909;28;20140;-52
2022/02/13 07:55:32;;;;;;;19.90;10.10;;;;;;;6.02;58.36;101325.00;4956258;28;20046;-55
2022/02/13 07:57:57;;;;;;;22.80;10.02;;;;;;;6.01;58.37;101315.47;4956371;28;20383;-56
2022/02/13 08:00:22;;;;;;;18.92;10.15;;;;;;;6.01;58.16;101312.88;4952992;28;20066;-56
2022/02/13 08:02:48;;;;;;;18.95;9.95;;;;;;;6.13;58.02;101315.94;4950461;28;20049;-59
2022/02/13 08:05:14;;;;;;;17.08;9.50;;;;;;;6.14;58.01;101312.53;4958617;28;20392;-55
2022/02/13 08:07:45;;;;;;;23.05;10.32;;;;;;;6.02;58.72;101318.13;4955481;28;20053;-55
2022/02/13 08:10:10;;;;;;;20.10;10.35;;;;;;;6.11;57.78;101307.22;4956147;28;20427;-56
2022/02/13 08:12:36;;;;;;;19.65;9.70;;;;;;;6.27;57.35;101306.13;4959175;28;20054;-56
2022/02/13 08:15:01;;;;;;;19.33;9.95;;;;;;;6.28;57.31;101302.69;4941640;28;20161;-58
2022/02/13 08:17:27;;;;;;;18.10;9.60;;;;;;;6.38;57.63;101294.44;4956320;28;20519;-57
2022/02/13 08:19:52;;;;;;;19.08;9.85;;;;;;;6.37;57.82;101290.09;4956416;28;23849;-56
2022/02/13 08:22:17;;;;;;;16.88;9.98;;;;;;;6.47;57.19;101285.28;4960441;28;20074;-55
2022/02/13 08:24:44;;;;;;;17.85;8.73;;;;;;;6.50;56.98;101282.81;4957316;28;20046;-55
2022/02/13 08:27:09;;;;;;;18.55;9.80;;;;;;;6.55;57.04;101280.38;4948077;28;20498;-53
2022/02/13 08:29:34;;;;;;;15.35;9.15;;;;;;;6.49;57.09;101273.28;4961097;28;20057;-56
2022/02/13 08:32:00;;;;;;;18.52;9.48;;;;;;;6.57;56.88;101272.69;4959661;28;20077;-55
2022/02/13 08:34:25;;;;;;;19.48;9.45;;;;;;;6.72;56.47;101273.22;4953898;28;20422;-55
2022/02/13 08:36:57;;;;;;;19.33;9.63;;;;;;;6.58;57.06;101269.28;4953503;28;20224;-52
2022/02/13 08:39:23;;;;;;;17.08;9.13;;;;;;;6.74;56.47;101269.84;4947958;28;20042;-55
2022/02/13 08:41:48;;;;;;;21.05;9.43;;;;;;;6.75;56.23;101257.78;4960062;28;20438;-54
2022/02/13 08:44:14;;;;;;;18.95;9.57;;;;;;;6.78;56.45;101253.56;4955819;28;20651;-57
2022/02/13 08:46:39;;;;;;;17.48;9.70;;;;;;;6.83;56.38;101252.00;4955370;28;20068;-58
2022/02/13 08:49:04;;;;;;;17.70;9.60;;;;;;;6.96;56.61;101245.53;4949875;28;20053;-55
2022/02/13 08:51:30;;;;;;;16.67;9.45;;;;;;;7.01;56.18;101243.13;4952450;28;20054;-55
2022/02/13 08:53:55;;;;;;;18.15;9.45;;;;;;;6.99;56.43;101239.59;4954682;28;20054;-56
2022/02/13 08:56:21;;;;;;;17.10;9.50;;;;;;;6.90;56.14;101242.75;4955546;28;20058;-58
2022/02/13 08:58:47;;;;;;;19.40;9.60;;;;;;;7.13;55.77;101247.00;4957299;28;20053;-60
2022/02/13 09:01:12;;;;;;;18.90;9.93;;;;;;;7.15;55.98;101240.16;4955242;28;20120;-57
2022/02/13 09:03:38;;;;;;;18.98;9.27;;;;;;;7.11;55.63;101240.00;4954087;28;20093;-55
2022/02/13 09:06:05;;;;;;;19.33;10.10;;;;;;;7.01;55.96;101230.16;4951495;28;20466;-57
2022/02/13 09:08:30;;;;;;;16.50;9.10;;;;;;;7.02;55.96;101224.13;4952547;28;20860;-57
2022/02/13 09:10:56;;;;;;;19.00;9.48;;;;;;;7.00;56.10;101233.59;4954367;28;20037;-55
2022/02/13 09:13:21;;;;;;;18.02;9.38;;;;;;;7.02;55.87;101227.59;4948868;28;20520;-55
2022/02/13 09:15:46;;;;;;;19.25;9.75;;;;;;;7.18;55.70;101223.81;4956964;28;20900;-56
2022/02/13 09:18:13;;;;;;;17.77;9.27;;;;;;;7.20;55.61;101219.53;4956436;28;20074;-56
2022/02/13 09:20:44;;;;;;;18.55;9.45;;;;;;;7.22;55.66;101216.19;4956791;28;20042;-56
2022/02/13 09:23:14;;;;;;;15.45;8.95;;;;;;;7.13;55.58;101208.13;4953985;28;20115;-55
2022/02/13 09:25:44;;;;;;;16.77;9.25;;;;;;;7.47;54.93;101197.09;4955034;28;20050;-54
2022/02/13 09:28:13;;;;;;;16.00;9.18;;;;;;;7.64;54.43;101184.63;4957963;28;20058;-56
2022/02/13 09:30:38;;;;;;;18.08;9.68;;;;;;;7.71;54.50;101192.66;4953615;28;20105;-57
2022/02/13 09:33:04;;;;;;;16.60;9.10;;;;;;;7.87;53.74;101186.16;4947276;28;20192;-58
2022/02/13 09:35:29;;;;;;;16.45;9.10;;;;;;;8.00;54.05;101185.69;4953497;28;20496;-57
2022/02/13 09:37:56;;;;;;;16.90;9.27;;;;;;;8.00;54.42;101184.81;4952783;28;20058;-57
2022/02/13 09:40:23;;;;;;;17.92;9.70;;;;;;;8.01;53.45;101189.19;4957714;28;20405;-58
2022/02/13 09:42:49;;;;;;;17.73;9.75;;;;;;;7.82;54.69;101189.47;4948604;28;20047;-56
2022/02/13 09:45:19;;;;;;;15.48;8.85;;;;;;;7.99;53.44;101183.94;4953453;28;20061;-58
2022/02/13 09:47:45;;;;;;;19.40;9.30;;;;;;;8.11;53.87;101173.03;4963946;28;20054;-58
2022/02/13 09:50:10;;;;;;;16.52;9.38;;;;;;;8.16;54.15;101174.03;4955134;28;20371;-58
2022/02/13 09:52:36;;;;;;;18.15;9.43;;;;;;;7.98;54.69;101170.94;4956139;28;20034;-58
2022/02/13 09:55:02;;;;;;;19.02;9.98;;;;;;;7.96;54.21;101177.78;4927722;28;20231;-58
2022/02/13 10:00:12;;;;;;;16.35;9.55;;;;;;;7.80;55.20;101173.00;4945304;28;20058;-56
2022/02/13 10:02:39;;;;;;;19.42;9.98;;;;;;;8.11;54.23;101167.84;4955479;28;20466;-57
2022/02/13 10:05:07;;;;;;;17.73;9.70;;;;;;;8.27;53.81;101179.53;4958922;28;20046;-56
2022/02/13 10:07:35;;;;;;;24.02;9.90;;;;;;;8.14;53.92;101181.78;4945840;28;20312;-55
2022/02/13 10:10:06;;;;;;;18.33;9.15;;;;;;;8.10;54.15;101169.56;4951273;28;20038;-57
2022/02/13 10:12:39;;;;;;;17.80;9.38;;;;;;;8.12;54.63;101165.28;4945239;28;20145;-57
2022/02/13 10:15:34;;;;;;;16.80;9.55;;;;;;;8.45;53.49;101161.88;4956415;28;20549;-56
2022/02/13 10:18:04;;;;;;;;;;;;;;;8.56;53.36;101152.63;4949594;28;20034;-55
2022/02/13 10:20:41;;;;;;;17.15;9.30;;;;;;;8.63;53.73;101148.47;4949442;28;19975;-56
2022/02/13 10:23:07;;;;;;;18.23;9.73;;;;;;;8.70;53.41;101153.00;4955264;28;20058;-58
2022/02/13 10:25:33;;;;;;;18.17;9.30;;;;;;;8.72;53.06;101144.38;4936719;28;20050;-56
2022/02/13 10:27:59;;;;;;;17.45;9.70;;;;;;;8.61;53.82;101143.22;4944414;28;20042;-55
2022/02/13 10:30:41;;;;;;;16.48;8.90;;;;;;;8.65;53.64;101139.88;4959323;28;20056;-55
2022/02/13 10:33:22;;;;;;;17.50;8.88;;;;;;;8.69;53.24;101152.09;4940960;28;20318;-55
2022/02/13 10:36:10;;;;;;;16.13;9.50;;;;;;;8.73;54.27;101138.34;4960974;28;20253;-56
2022/02/13 10:38:38;;;;;;;18.83;9.23;;;;;;;8.67;53.64;101132.97;4955175;28;20541;-55
2022/02/13 10:41:35;;;;;;;18.70;9.48;;;;;;;8.53;53.89;101135.25;4954916;28;20077;-58
2022/02/13 10:44:06;;;;;;;19.42;9.57;;;;;;;8.65;53.25;101126.91;4957216;28;20600;-56
2022/02/13 10:46:36;;;;;;;15.75;9.10;;;;;;;8.62;53.75;101128.50;4949738;28;20089;-57
2022/02/13 10:49:03;;;;;;;16.45;8.88;;;;;;;8.46;53.82;101116.88;4960695;28;20573;-55
2022/02/13 10:51:29;;;;;;;15.38;8.52;;;;;;;8.63;53.56;101117.28;4945300;28;20050;-56
2022/02/13 10:53:55;;;;;;;17.45;8.60;;;;;;;8.75;53.63;101109.78;4957120;28;20066;-55
2022/02/13 10:56:22;;;;;;;15.02;9.02;;;;;;;8.66;53.20;101102.63;4940425;28;20065;-57
2022/02/13 10:58:48;;;;;;;17.13;8.50;;;;;;;8.70;53.26;101109.69;4962201;28;20110;-57
2022/02/13 11:01:16;;;;;;;14.77;8.70;;;;;;;8.85;52.66;101097.03;4935020;28;20072;-53
2022/02/13 11:03:44;;;;;;;14.82;8.63;;;;;;;8.91;52.56;101091.09;4954032;28;20580;-56
2022/02/13 11:06:10;;;;;;;15.32;8.57;;;;;;;8.82;52.52;101086.59;4957990;28;20627;-57
2022/02/13 11:08:53;;;;;;;14.32;8.63;;;;;;;8.91;52.36;101073.78;4948212;28;20049;-56
2022/02/13 11:11:19;;;;;;;17.35;8.52;;;;;;;9.07;52.19;101067.22;4946413;28;20134;-60
2022/02/13 11:13:45;;;;;;;14.25;8.07;;;;;;;9.03;52.17;101060.19;4962644;28;20388;-56
2022/02/13 11:16:27;;;;;;;16.67;8.65;;;;;;;8.90;52.35;101059.03;4944327;28;20100;-56
2022/02/13 11:18:54;;;;;;;16.92;8.70;;;;;;;9.09;52.20;101060.31;4962370;28;20409;-57
2022/02/13 11:21:22;;;;;;;19.27;8.05;;;;;;;9.31;51.64;101046.06;4955287;28;20564;-56
2022/02/13 11:23:54;;;;;;;15.60;8.25;;;;;;;9.52;51.46;101037.81;4954450;28;20132;-56